Time;durP1;ratioP1;P1;durP2;ratioP2;P2;SDS_P1;SDS_P2;PMS_P1;PMS_P2;Temp;Humidity;BMP_temperature;BMP_pressure;BME280_temperature;BME280_humidity;BME280_pressure;Samples;Min_cycle;Max_cycle;Signal;HPM_P1;HPM_P2
2022/12/28 00:01:45;;;;;;;1.27;1.00;;;0.30;99.90;;;;;;5071475;28;20773;-77
2022/12/28 00:04:16;;;;;;;1.00;1.00;;;0.50;99.90;;;;;;5067765;28;20439;-77
2022/12/28 00:06:44;;;;;;;1.47;0.97;;;0.60;99.90;;;;;;5071652;28;20436;-77
2022/12/28 00:09:11;;;;;;;0.60;0.60;;;0.80;99.90;;;;;;5064123;28;20427;-77
2022/12/28 00:11:38;;;;;;;0.50;0.50;;;0.90;99.90;;;;;;5062260;28;20481;-77
2022/12/28 00:14:05;;;;;;;2.17;0.90;;;0.90;99.90;;;;;;5062252;28;20458;-77
2022/12/28 00:16:35;;;;;;;7.65;1.20;;;0.90;99.90;;;;;;5072024;28;20938;-77
2022/12/28 00:19:05;;;;;;;0.65;0.65;;;1.00;99.90;;;;;;5056331;28;20510;-77
2022/12/28 00:21:32;;;;;;;1.02;1.02;;;1.00;99.90;;;;;;5061145;28;20461;-77
2022/12/28 00:24:00;;;;;;;0.82;0.82;;;1.00;99.90;;;;;;5059552;28;20985;-78
2022/12/28 00:26:30;;;;;;;2.17;1.17;;;0.90;99.90;;;;;;5059489;28;20508;-78
2022/12/28 00:28:57;;;;;;;0.90;0.87;;;0.90;99.90;;;;;;5066109;28;20502;-77
2022/12/28 00:31:30;;;;;;;1.17;0.77;;;0.90;99.90;;;;;;5061332;28;20423;-77
2022/12/28 00:33:57;;;;;;;1.58;1.15;;;0.90;99.90;;;;;;5072850;28;20497;-77
2022/12/28 00:36:24;;;;;;;1.13;1.02;;;0.90;99.90;;;;;;5055474;28;20780;-77
2022/12/28 00:39:11;;;;;;;1.43;1.03;;;0.80;99.90;;;;;;5069379;28;21203;-77
2022/12/28 00:41:38;;;;;;;1.05;0.95;;;0.80;99.90;;;;;;5047622;28;20431;-77
2022/12/28 00:44:04;;;;;;;0.88;0.88;;;0.80;99.90;;;;;;5070845;28;20428;-77
2022/12/28 00:46:31;;;;;;;2.42;1.23;;;0.80;99.90;;;;;;5065160;28;20423;-76
2022/12/28 00:48:58;;;;;;;1.35;1.25;;;0.80;99.90;;;;;;5056879;28;20447;-77
2022/12/28 00:51:24;;;;;;;0.80;0.80;;;0.80;99.90;;;;;;5059339;28;20464;-77
2022/12/28 00:53:51;;;;;;;0.75;0.75;;;0.90;99.90;;;;;;5060267;28;20739;-77
2022/12/28 00:56:20;;;;;;;0.60;0.60;;;1.00;99.90;;;;;;5066316;28;20433;-77
2022/12/28 00:58:58;;;;;;;1.20;1.10;;;1.10;99.90;;;;;;5070896;28;20427;-77
2022/12/28 01:01:26;;;;;;;0.90;0.90;;;1.10;99.90;;;;;;5071886;28;20565;-77
2022/12/28 01:03:56;;;;;;;0.68;0.68;;;1.10;99.90;;;;;;5065675;28;20438;-77
2022/12/28 01:06:22;;;;;;;0.80;0.80;;;1.20;99.90;;;;;;5055587;28;20459;-77
2022/12/28 01:08:49;;;;;;;1.38;0.82;;;1.20;99.90;;;;;;5067431;28;20424;-77
2022/12/28 01:11:27;;;;;;;1.25;0.65;;;1.20;99.90;;;;;;5067090;28;20543;-77
2022/12/28 01:13:57;;;;;;;1.30;0.80;;;1.20;99.90;;;;;;5072190;28;20427;-77
2022/12/28 01:16:29;;;;;;;0.90;0.80;;;1.20;99.90;;;;;;5056144;28;20429;-78
2022/12/28 01:18:58;;;;;;;1.02;0.95;;;1.20;99.90;;;;;;5054455;28;20973;-77
2022/12/28 01:21:27;;;;;;;0.88;0.85;;;1.20;99.90;;;;;;5062929;28;20431;-77
2022/12/28 01:23:57;;;;;;;1.70;1.00;;;1.20;99.90;;;;;;5061594;28;20465;-77
2022/12/28 01:26:25;;;;;;;2.60;1.00;;;1.20;99.90;;;;;;5065035;28;20477;-78
2022/12/28 01:28:52;;;;;;;0.55;0.55;;;1.20;99.90;;;;;;5063721;28;20437;-77
2022/12/28 01:31:21;;;;;;;1.98;0.90;;;1.30;99.90;;;;;;5067296;28;20507;-77
2022/12/28 01:33:48;;;;;;;0.85;0.85;;;1.30;99.90;;;;;;5056597;28;20427;-77
2022/12/28 01:36:18;;;;;;;0.73;0.73;;;1.30;99.90;;;;;;5068353;28;21114;-77
2022/12/28 01:38:46;;;;;;;0.80;0.80;;;1.40;99.90;;;;;;5070162;28;20438;-78
2022/12/28 01:41:15;;;;;;;3.00;1.00;;;1.40;99.90;;;;;;5052597;28;20444;-78
2022/12/28 01:43:51;;;;;;;0.75;0.75;;;1.50;99.90;;;;;;5065787;28;20428;-78
2022/12/28 01:46:20;;;;;;;0.75;0.75;;;1.50;99.90;;;;;;5055562;28;20434;-78
2022/12/28 01:49:01;;;;;;;1.20;1.05;;;1.60;99.90;;;;;;5054666;28;20506;-77
2022/12/28 01:51:32;;;;;;;1.13;1.02;;;1.60;99.90;;;;;;5062276;28;20459;-77
2022/12/28 01:54:01;;;;;;;0.75;0.75;;;1.60;99.90;;;;;;5052147;28;20479;-77
2022/12/28 01:56:28;;;;;;;0.90;0.80;;;1.60;99.90;;;;;;5053049;28;20840;-78
2022/12/28 01:58:56;;;;;;;0.93;0.90;;;1.60;99.90;;;;;;5062124;28;21088;-77
2022/12/28 02:01:24;;;;;;;1.80;1.35;;;1.70;99.90;;;;;;5061322;28;20468;-77
2022/12/28 02:03:51;;;;;;;2.25;0.98;;;1.70;99.90;;;;;;5040399;28;20461;-77
2022/12/28 02:06:18;;;;;;;1.10;1.10;;;1.80;99.90;;;;;;5067886;28;21005;-77
2022/12/28 02:09:15;;;;;;;0.90;0.90;;;1.80;99.90;;;;;;5053032;28;20508;-77
2022/12/28 02:11:43;;;;;;;1.47;1.37;;;1.90;99.90;;;;;;5056112;28;20531;-77
2022/12/28 02:14:12;;;;;;;1.17;0.93;;;2.00;99.90;;;;;;5059198;28;20471;-77
2022/12/28 02:16:39;;;;;;;0.70;0.70;;;2.00;99.90;;;;;;5063673;28;20428;-77
2022/12/28 02:19:12;;;;;;;0.88;0.88;;;2.10;99.90;;;;;;5054242;28;20485;-77
2022/12/28 02:21:53;;;;;;;1.90;1.20;;;2.20;99.90;;;;;;5060881;28;20919;-77
2022/12/28 02:24:48;;;;;;;1.15;1.00;;;2.30;99.90;;;;;;5055190;28;20431;-77
2022/12/28 02:27:37;;;;;;;0.93;0.93;;;2.30;99.90;;;;;;5049893;28;20429;-77
2022/12/28 02:30:11;;;;;;;1.20;1.10;;;2.30;99.90;;;;;;5052266;28;20940;-77
2022/12/28 02:32:40;;;;;;;4.25;2.20;;;2.20;99.90;;;;;;5061773;28;20758;-76
2022/12/28 02:35:16;;;;;;;1.45;1.00;;;2.20;99.90;;;;;;5062842;28;20433;-77
2022/12/28 02:38:01;;;;;;;0.77;0.77;;;2.30;99.90;;;;;;5057410;28;20466;-77
2022/12/28 02:40:58;;;;;;;1.13;1.02;;;2.40;99.90;;;;;;5059674;28;20950;-77
2022/12/28 02:43:25;;;;;;;3.42;1.25;;;2.40;99.90;;;;;;5054644;28;20437;-77
2022/12/28 02:51:54;;;;;;;1.23;1.23;;;2.50;99.90;;;;;;5064876;28;20502;-78
2022/12/28 02:57:49;;;;;;;2.20;1.10;;;2.50;99.90;;;;;;5054686;28;20436;-77
2022/12/28 03:00:18;;;;;;;1.20;1.10;;;2.40;99.90;;;;;;5070393;28;20941;-77
2022/12/28 03:03:05;;;;;;;1.00;1.00;;;2.50;99.90;;;;;;5059458;28;20551;-77
2022/12/28 03:08:49;;;;;;;0.95;0.95;;;2.50;99.90;;;;;;5069227;28;20430;-77
2022/12/28 03:11:21;;;;;;;1.53;0.93;;;2.50;99.90;;;;;;5053947;28;20432;-77
2022/12/28 03:14:05;;;;;;;0.82;0.80;;;2.50;99.90;;;;;;5067652;28;20435;-77
2022/12/28 03:31:06;;;;;;;0.93;0.87;;;2.70;99.90;;;;;;5048166;28;20524;-79
2022/12/28 03:33:40;;;;;;;0.75;0.75;;;2.70;99.90;;;;;;5046880;28;20840;-79
2022/12/28 03:36:34;;;;;;;3.80;1.05;;;2.80;99.90;;;;;;5031877;28;20422;-79
2022/12/28 03:39:12;;;;;;;0.90;0.90;;;2.80;99.90;;;;;;5047424;28;20437;-79
2022/12/28 03:45:26;;;;;;;0.95;0.52;;;2.80;99.90;;;;;;5049481;28;20433;-79
2022/12/28 03:48:14;;;;;;;1.10;1.10;;;2.90;99.90;;;;;;5046989;28;20804;-80
2022/12/28 03:50:43;;;;;;;6.40;1.10;;;2.90;99.90;;;;;;5047157;28;20583;-79
2022/12/28 03:53:10;;;;;;;0.70;0.70;;;2.90;99.90;;;;;;5039980;28;20429;-79
2022/12/28 03:55:38;;;;;;;1.67;1.52;;;3.00;99.90;;;;;;5051185;28;20861;-79
2022/12/28 03:58:05;;;;;;;1.05;0.95;;;3.00;99.90;;;;;;5050790;28;20428;-79
2022/12/28 04:00:35;;;;;;;0.63;0.63;;;3.00;99.90;;;;;;5055497;28;20481;-77
2022/12/28 04:03:02;;;;;;;1.25;1.15;;;3.10;99.90;;;;;;5065441;28;20550;-76
2022/12/28 04:05:29;;;;;;;1.60;1.48;;;3.10;99.90;;;;;;5069921;28;20496;-78
2022/12/28 04:07:55;;;;;;;2.08;0.77;;;3.10;99.90;;;;;;5062827;28;20440;-78
2022/12/28 04:10:25;;;;;;;0.90;0.90;;;3.10;99.90;;;;;;5064546;28;20435;-78
2022/12/28 04:12:58;;;;;;;0.70;0.70;;;3.10;99.90;;;;;;5068964;28;20432;-78
2022/12/28 04:15:24;;;;;;;1.30;1.03;;;3.20;99.90;;;;;;5065267;28;20439;-78
2022/12/28 04:17:51;;;;;;;1.23;1.13;;;3.10;99.90;;;;;;5072674;28;20435;-78
2022/12/28 04:20:18;;;;;;;1.70;0.70;;;3.20;99.90;;;;;;5073295;28;20432;-78
2022/12/28 04:22:45;;;;;;;0.90;0.90;;;3.20;99.90;;;;;;5054545;28;20463;-79
2022/12/28 04:25:11;;;;;;;0.85;0.82;;;3.20;99.90;;;;;;5068121;28;20455;-78
2022/12/28 04:27:41;;;;;;;1.30;1.20;;;3.20;99.90;;;;;;5070761;28;20820;-78
2022/12/28 04:30:08;;;;;;;0.70;0.70;;;3.20;99.90;;;;;;5073600;28;20419;-78
2022/12/28 04:32:35;;;;;;;1.15;1.15;;;3.30;99.90;;;;;;5053544;28;20433;-78
2022/12/28 04:35:02;;;;;;;5.00;1.00;;;3.30;99.90;;;;;;5052410;28;20436;-79
2022/12/28 04:37:29;;;;;;;1.08;1.08;;;3.30;99.90;;;;;;5055179;28;20486;-79
2022/12/28 04:39:58;;;;;;;2.67;1.08;;;3.30;99.90;;;;;;5056307;28;20438;-78
2022/12/28 04:42:25;;;;;;;0.70;0.70;;;3.40;99.90;;;;;;5054203;28;20542;-79
2022/12/28 04:44:52;;;;;;;0.60;0.60;;;3.40;99.90;;;;;;5054243;28;20548;-79
2022/12/28 04:47:19;;;;;;;0.70;0.70;;;3.40;99.90;;;;;;5053339;28;21027;-79
2022/12/28 04:49:45;;;;;;;0.88;0.88;;;3.40;99.90;;;;;;5035387;28;20432;-78
2022/12/28 04:52:12;;;;;;;4.82;0.77;;;3.50;99.90;;;;;;5053148;28;20430;-79
2022/12/28 04:54:42;;;;;;;0.75;0.75;;;3.50;99.90;;;;;;5053863;28;20809;-78
2022/12/28 04:57:09;;;;;;;3.30;1.40;;;3.50;99.90;;;;;;5064007;28;20916;-79
2022/12/28 04:59:35;;;;;;;1.00;1.00;;;3.50;99.90;;;;;;5053662;28;20433;-79
2022/12/28 05:02:05;;;;;;;3.80;1.30;;;3.50;99.90;;;;;;5061244;28;20468;-79
2022/12/28 05:04:32;;;;;;;1.23;1.13;;;3.60;99.90;;;;;;5090899;28;20781;-79
2022/12/28 05:06:59;;;;;;;1.30;0.85;;;3.70;99.90;;;;;;5072268;28;21157;-79
2022/12/28 05:09:25;;;;;;;1.10;1.00;;;3.70;99.90;;;;;;5068540;28;20418;-79
2022/12/28 05:11:52;;;;;;;0.95;0.95;;;3.70;99.90;;;;;;5072061;28;20430;-78
2022/12/28 05:14:19;;;;;;;3.50;1.30;;;3.70;99.90;;;;;;5056252;28;20457;-78
2022/12/28 05:16:50;;;;;;;1.35;1.23;;;3.80;99.90;;;;;;5053331;28;20505;-78
2022/12/28 05:19:16;;;;;;;0.75;0.75;;;3.80;99.90;;;;;;5067332;28;20508;-78
2022/12/28 05:21:43;;;;;;;1.58;0.88;;;3.90;99.90;;;;;;5052227;28;20948;-79
2022/12/28 05:24:10;;;;;;;0.73;0.47;;;3.80;99.90;;;;;;5072836;28;20438;-79
2022/12/28 05:26:37;;;;;;;0.68;0.60;;;3.90;99.90;;;;;;5067288;28;20846;-78
2022/12/28 05:29:04;;;;;;;0.90;0.90;;;3.90;99.90;;;;;;5066964;28;20435;-78
2022/12/28 05:31:30;;;;;;;1.15;0.70;;;4.00;99.90;;;;;;5067377;28;20541;-79
2022/12/28 05:33:57;;;;;;;0.60;0.60;;;3.90;99.90;;;;;;5061877;28;20465;-79
2022/12/28 05:36:26;;;;;;;1.10;0.95;;;4.00;99.90;;;;;;5034794;28;20460;-79
2022/12/28 05:38:54;;;;;;;0.75;0.75;;;4.00;99.90;;;;;;5035701;28;20437;-79
2022/12/28 05:41:24;;;;;;;0.98;0.98;;;4.00;99.90;;;;;;5070963;28;20462;-79
2022/12/28 05:43:51;;;;;;;0.70;0.70;;;4.10;99.90;;;;;;5055484;28;20510;-79
2022/12/28 05:46:22;;;;;;;0.85;0.85;;;4.10;99.90;;;;;;5066730;28;20906;-78
2022/12/28 05:48:50;;;;;;;0.22;0.22;;;4.10;99.90;;;;;;5055730;28;20505;-79
2022/12/28 05:51:19;;;;;;;0.70;0.70;;;4.10;99.90;;;;;;5051110;28;20431;-79
2022/12/28 05:53:46;;;;;;;2.97;0.75;;;4.10;99.90;;;;;;5065020;28;20859;-79
2022/12/28 05:56:18;;;;;;;0.80;0.80;;;4.10;99.90;;;;;;5060773;28;20907;-79
2022/12/28 05:58:46;;;;;;;0.85;0.85;;;4.10;99.90;;;;;;5056857;28;20432;-79
2022/12/28 06:01:15;;;;;;;0.50;0.50;;;4.10;99.90;;;;;;5066298;28;20977;-79
2022/12/28 06:03:44;;;;;;;0.60;0.50;;;4.10;99.90;;;;;;5053424;28;20491;-80
2022/12/28 06:06:13;;;;;;;1.20;0.75;;;4.00;99.90;;;;;;5072069;28;20427;-79
2022/12/28 06:08:41;;;;;;;1.40;0.90;;;4.10;99.90;;;;;;5064825;28;20433;-75
2022/12/28 06:11:10;;;;;;;1.70;1.10;;;4.10;99.90;;;;;;5057926;28;20481;-75
2022/12/28 06:13:37;;;;;;;0.82;0.80;;;4.10;99.90;;;;;;5056350;28;20784;-75
2022/12/28 06:16:11;;;;;;;0.63;0.63;;;4.10;99.90;;;;;;5041042;28;20429;-75
2022/12/28 06:18:38;;;;;;;0.60;0.60;;;4.10;99.90;;;;;;5057566;28;20425;-75
2022/12/28 06:21:27;;;;;;;2.60;0.82;;;4.10;99.90;;;;;;5056808;28;20435;-74
2022/12/28 06:23:58;;;;;;;0.50;0.50;;;4.10;99.90;;;;;;5056046;28;20435;-74
2022/12/28 06:26:28;;;;;;;0.47;0.47;;;4.10;99.90;;;;;;5056820;28;20423;-75
2022/12/28 06:28:55;;;;;;;1.25;0.85;;;4.10;99.90;;;;;;5037005;28;20431;-75
2022/12/28 06:31:25;;;;;;;0.73;0.57;;;4.10;99.90;;;;;;5055485;28;20995;-75
2022/12/28 06:33:56;;;;;;;0.50;0.50;;;4.10;99.90;;;;;;5037568;28;20520;-74
2022/12/28 06:36:29;;;;;;;0.28;0.28;;;4.10;99.90;;;;;;5055989;28;20464;-75
2022/12/28 06:38:57;;;;;;;0.65;0.65;;;4.10;99.90;;;;;;5037530;28;21253;-75
2022/12/28 06:41:25;;;;;;;0.75;0.75;;;4.20;99.90;;;;;;5061521;28;20458;-74
2022/12/28 06:43:53;;;;;;;0.90;0.80;;;4.20;99.90;;;;;;5061500;28;20478;-74
2022/12/28 06:46:21;;;;;;;0.90;0.60;;;4.20;99.90;;;;;;5049860;28;20795;-74
2022/12/28 06:48:49;;;;;;;1.17;0.90;;;4.20;99.90;;;;;;5056372;28;21524;-75
2022/12/28 06:51:28;;;;;;;0.40;0.40;;;4.30;99.90;;;;;;5061965;28;21456;-75
2022/12/28 06:53:55;;;;;;;1.00;1.00;;;4.30;99.90;;;;;;5069029;28;21048;-75
2022/12/28 06:56:26;;;;;;;2.50;0.85;;;4.30;99.90;;;;;;5053719;28;20421;-74
2022/12/28 06:58:53;;;;;;;0.40;0.40;;;4.30;99.90;;;;;;5063844;28;20511;-74
2022/12/28 07:01:35;;;;;;;0.80;0.80;;;4.30;99.90;;;;;;5051638;28;20496;-74
2022/12/28 07:04:03;;;;;;;0.90;0.77;;;4.40;99.90;;;;;;5063349;28;20476;-74
2022/12/28 07:06:36;;;;;;;0.35;0.32;;;4.40;99.90;;;;;;5057077;28;20417;-74
2022/12/28 07:09:06;;;;;;;0.80;0.80;;;4.40;99.90;;;;;;5059093;28;20427;-75
2022/12/28 07:11:33;;;;;;;1.63;0.82;;;4.40;99.90;;;;;;5047360;28;23252;-75
2022/12/28 07:14:00;;;;;;;0.82;0.65;;;4.40;99.90;;;;;;5054468;28;20835;-74
2022/12/28 07:16:28;;;;;;;0.90;0.70;;;4.40;99.90;;;;;;5059823;28;20448;-74
2022/12/28 07:19:02;;;;;;;1.60;0.95;;;4.40;99.90;;;;;;5061872;28;20412;-74
2022/12/28 07:21:32;;;;;;;0.60;0.60;;;4.40;99.90;;;;;;5057839;28;20438;-74
2022/12/28 07:23:59;;;;;;;0.70;0.50;;;4.40;99.90;;;;;;5063251;28;20513;-75
2022/12/28 07:26:36;;;;;;;1.20;0.80;;;4.40;99.90;;;;;;5054965;28;20845;-74
2022/12/28 07:29:05;;;;;;;1.70;0.60;;;4.40;99.90;;;;;;5056094;28;20464;-75
2022/12/28 07:31:34;;;;;;;0.93;0.50;;;4.40;99.90;;;;;;5064059;28;21087;-75
2022/12/28 07:34:10;;;;;;;0.70;0.70;;;4.40;99.90;;;;;;5047259;28;20515;-74
2022/12/28 07:36:37;;;;;;;0.70;0.70;;;4.40;99.90;;;;;;5056030;28;20427;-75
2022/12/28 07:39:04;;;;;;;1.20;0.80;;;4.40;99.90;;;;;;5051988;28;20487;-74
2022/12/28 07:41:32;;;;;;;0.50;0.50;;;4.50;99.90;;;;;;5048620;28;20432;-74
2022/12/28 07:44:00;;;;;;;0.77;0.77;;;4.50;99.90;;;;;;5032985;28;20436;-75
2022/12/28 07:46:30;;;;;;;0.60;0.60;;;4.40;99.90;;;;;;5056960;28;20522;-75
2022/12/28 07:48:57;;;;;;;1.60;0.75;;;4.40;99.90;;;;;;5064385;28;20498;-74
2022/12/28 07:51:29;;;;;;;0.57;0.57;;;4.40;99.90;;;;;;5064064;28;20511;-75
2022/12/28 07:53:57;;;;;;;4.60;0.60;;;4.40;99.90;;;;;;5034757;28;20903;-75
2022/12/28 07:56:26;;;;;;;0.93;0.93;;;4.40;99.90;;;;;;5061102;28;20441;-75
2022/12/28 07:58:58;;;;;;;6.40;0.85;;;4.50;99.90;;;;;;5039575;28;20446;-74
2022/12/28 08:01:28;;;;;;;0.70;0.60;;;4.50;99.90;;;;;;5057150;28;20433;-75
2022/12/28 08:03:58;;;;;;;0.50;0.50;;;4.50;99.90;;;;;;5057360;28;20476;-74
2022/12/28 08:06:26;;;;;;;0.30;0.30;;;4.50;99.90;;;;;;5059169;28;20475;-74
2022/12/28 08:08:55;;;;;;;1.20;0.80;;;4.50;99.90;;;;;;5058285;28;20428;-75
2022/12/28 08:11:24;;;;;;;1.13;0.63;;;4.60;99.90;;;;;;5054680;28;20846;-75
2022/12/28 08:13:55;;;;;;;0.60;0.60;;;4.70;99.90;;;;;;5047135;28;20433;-75
2022/12/28 08:16:25;;;;;;;0.60;0.57;;;4.70;99.90;;;;;;5068104;28;20433;-75
2022/12/28 08:18:53;;;;;;;0.80;0.80;;;4.70;99.90;;;;;;5065495;28;20801;-74
2022/12/28 08:21:27;;;;;;;0.60;0.60;;;4.70;99.90;;;;;;5060139;28;20777;-74
2022/12/28 08:23:56;;;;;;;0.45;0.45;;;4.80;99.90;;;;;;5063311;28;20797;-74
2022/12/28 08:26:24;;;;;;;0.93;0.93;;;4.80;99.90;;;;;;5052456;28;20431;-74
2022/12/28 08:28:54;;;;;;;0.70;0.70;;;4.80;99.90;;;;;;5055150;28;20454;-74
2022/12/28 08:31:26;;;;;;;0.40;0.40;;;5.00;99.90;;;;;;5054936;28;20479;-74
2022/12/28 08:33:54;;;;;;;0.90;0.90;;;5.00;99.90;;;;;;5052801;28;20943;-74
2022/12/28 08:36:21;;;;;;;0.80;0.80;;;5.10;99.90;;;;;;5054842;28;20939;-74
2022/12/28 08:38:51;;;;;;;0.85;0.85;;;5.10;99.90;;;;;;5062068;28;20510;-74
2022/12/28 08:41:21;;;;;;;0.63;0.63;;;5.20;99.90;;;;;;5046508;28;20433;-74
2022/12/28 08:43:51;;;;;;;0.35;0.35;;;5.40;99.90;;;;;;5066468;28;20435;-74
2022/12/28 08:46:19;;;;;;;0.70;0.60;;;5.50;99.90;;;;;;5055961;28;20437;-75
2022/12/28 08:48:48;;;;;;;0.70;0.65;;;5.50;99.90;;;;;;5044718;28;20477;-75
2022/12/28 08:51:44;;;;;;;1.42;0.63;;;5.50;99.90;;;;;;5050794;28;20946;-74
2022/12/28 08:54:13;;;;;;;1.80;0.70;;;5.60;99.90;;;;;;5056680;28;20437;-74
2022/12/28 08:56:41;;;;;;;0.47;0.47;;;5.70;99.90;;;;;;5058481;28;20518;-74
2022/12/28 08:59:16;;;;;;;0.73;0.73;;;5.70;99.90;;;;;;5067456;28;20530;-74
2022/12/28 09:01:44;;;;;;;1.73;0.60;;;5.70;99.90;;;;;;5070129;28;20550;-74
2022/12/28 09:04:20;;;;;;;0.80;0.28;;;5.70;99.90;;;;;;5042412;28;20433;-74
2022/12/28 09:06:48;;;;;;;0.60;0.40;;;5.60;99.90;;;;;;5053898;28;20792;-75
2022/12/28 09:09:16;;;;;;;0.50;0.50;;;5.60;99.90;;;;;;5056476;28;20612;-74
2022/12/28 09:11:43;;;;;;;0.28;0.28;;;5.60;99.90;;;;;;5051254;28;20433;-74
2022/12/28 09:14:12;;;;;;;0.63;0.63;;;5.70;99.90;;;;;;5054848;28;20433;-74
2022/12/28 09:16:48;;;;;;;0.50;0.43;;;5.80;99.90;;;;;;5064012;28;20428;-75
2022/12/28 09:19:15;;;;;;;1.80;0.68;;;5.80;99.90;;;;;;5068921;28;20473;-74
2022/12/28 09:21:44;;;;;;;0.63;0.63;;;5.90;99.90;;;;;;5069298;28;20427;-75
2022/12/28 09:24:12;;;;;;;0.20;0.20;;;5.90;99.90;;;;;;5064244;28;20428;-74
2022/12/28 09:26:39;;;;;;;0.57;0.57;;;6.00;99.90;;;;;;5067990;28;20437;-75
2022/12/28 09:29:09;;;;;;;0.50;0.50;;;6.00;99.90;;;;;;5059069;28;20481;-75
2022/12/28 09:31:36;;;;;;;0.30;0.30;;;5.90;99.90;;;;;;5064597;28;20514;-75
2022/12/28 09:34:12;;;;;;;0.43;0.43;;;6.00;99.90;;;;;;5054329;28;20432;-74
2022/12/28 09:36:59;;;;;;;5.20;0.50;;;6.10;99.90;;;;;;5062290;28;20976;-74
2022/12/28 09:39:28;;;;;;;0.90;0.63;;;6.20;99.90;;;;;;5038763;28;21098;-74
2022/12/28 09:42:25;;;;;;;0.57;0.57;;;6.30;99.90;;;;;;5065039;28;20428;-75
2022/12/28 09:45:07;;;;;;;0.95;0.73;;;6.40;99.90;;;;;;5059650;28;20421;-75
2022/12/28 09:47:39;;;;;;;0.60;0.60;;;6.50;99.90;;;;;;5036232;28;20438;-75
2022/12/28 09:50:14;;;;;;;0.57;0.40;;;6.50;99.90;;;;;;5057122;28;20472;-75
2022/12/28 09:53:03;;;;;;;0.20;0.20;;;6.50;99.90;;;;;;5060797;28;20427;-74
2022/12/28 09:55:35;;;;;;;0.73;0.73;;;6.50;99.90;;;;;;5051795;28;20436;-74
2022/12/28 09:58:04;;;;;;;0.32;0.32;;;6.60;99.90;;;;;;5053143;28;20423;-75
2022/12/28 10:00:38;;;;;;;0.40;0.40;;;6.60;99.90;;;;;;5066299;28;20433;-75
2022/12/28 10:03:14;;;;;;;0.30;0.30;;;6.80;99.90;;;;;;5074491;28;20516;-74
2022/12/28 10:05:41;;;;;;;0.50;0.50;;;6.90;99.90;;;;;;5055725;28;21159;-75
2022/12/28 10:08:11;;;;;;;0.38;0.38;;;6.90;99.90;;;;;;5059874;28;20452;-75
2022/12/28 10:10:39;;;;;;;0.30;0.30;;;6.80;99.90;;;;;;5052058;28;20512;-75
2022/12/28 10:13:22;;;;;;;0.30;0.30;;;6.60;99.90;;;;;;5070275;28;20452;-75
2022/12/28 10:16:35;;;;;;;0.40;0.40;;;6.60;99.90;;;;;;5046871;28;20448;-75
2022/12/28 10:19:06;;;;;;;0.52;0.43;;;6.70;99.90;;;;;;5067900;28;20427;-76
2022/12/28 10:21:34;;;;;;;0.40;0.40;;;6.70;99.90;;;;;;5053737;28;20423;-75
2022/12/28 10:24:05;;;;;;;0.35;0.35;;;6.70;99.90;;;;;;5050399;28;21015;-76
2022/12/28 10:26:59;;;;;;;0.40;0.20;;;6.70;99.90;;;;;;5053771;28;20506;-75
2022/12/28 10:29:26;;;;;;;0.22;0.20;;;6.60;99.90;;;;;;5068135;28;20510;-75
2022/12/28 10:32:22;;;;;;;0.35;0.32;;;6.60;99.90;;;;;;5058357;28;20427;-75
2022/12/28 10:35:00;;;;;;;1.00;0.45;;;6.60;99.90;;;;;;4993076;28;21792;-74
2022/12/28 10:37:30;;;;;;;0.40;0.40;;;6.60;99.90;;;;;;5020485;28;20427;-76
2022/12/28 10:40:03;;;;;;;0.30;0.30;;;6.70;99.90;;;;;;5031186;28;20498;-75
2022/12/28 10:42:39;;;;;;;0.90;0.47;;;6.80;99.90;;;;;;5036024;28;20491;-75
2022/12/28 10:45:18;;;;;;;0.40;0.35;;;6.90;99.90;;;;;;5033415;28;20453;-75
2022/12/28 10:47:48;;;;;;;0.30;0.30;;;6.90;99.90;;;;;;5016630;28;20439;-75
2022/12/28 10:50:38;;;;;;;0.80;0.80;;;6.90;99.90;;;;;;5031649;28;20433;-74
2022/12/28 10:53:32;;;;;;;0.40;0.40;;;7.00;99.90;;;;;;5026971;28;20426;-74
2022/12/28 10:56:11;;;;;;;0.40;0.40;;;7.10;99.90;;;;;;5002800;28;20987;-75
2022/12/28 10:58:40;;;;;;;1.02;0.30;;;7.10;99.90;;;;;;5010944;28;20467;-74
2022/12/28 11:01:12;;;;;;;0.40;0.40;;;7.10;99.90;;;;;;5029618;28;20473;-75
2022/12/28 11:03:42;;;;;;;0.52;0.52;;;7.10;99.90;;;;;;5028196;28;21133;-75
2022/12/28 11:06:14;;;;;;;0.50;0.50;;;7.20;99.90;;;;;;5029326;28;20430;-75
2022/12/28 11:08:42;;;;;;;0.47;0.40;;;7.20;99.90;;;;;;5033567;28;20517;-74
2022/12/28 11:11:20;;;;;;;0.30;0.30;;;7.30;99.90;;;;;;5039902;28;20504;-74
2022/12/28 11:13:54;;;;;;;0.60;0.60;;;7.40;99.90;;;;;;5065326;28;20436;-75
2022/12/28 11:16:21;;;;;;;0.57;0.57;;;7.60;99.90;;;;;;5057790;28;20444;-75
2022/12/28 11:18:48;;;;;;;0.57;0.57;;;7.70;99.90;;;;;;5056514;28;20429;-75
2022/12/28 11:21:19;;;;;;;0.55;0.55;;;7.80;99.90;;;;;;5060386;28;20553;-75
2022/12/28 11:23:51;;;;;;;0.93;0.55;;;7.80;99.90;;;;;;5074421;28;20493;-75
2022/12/28 11:26:18;;;;;;;0.30;0.30;;;8.00;99.90;;;;;;5060092;28;20433;-74
2022/12/28 11:28:48;;;;;;;0.30;0.30;;;8.00;99.90;;;;;;5052455;28;20460;-75
2022/12/28 11:31:33;;;;;;;0.50;0.50;;;8.00;99.90;;;;;;5070551;28;20427;-74
2022/12/28 11:34:04;;;;;;;0.52;0.52;;;8.10;99.90;;;;;;5085306;28;20508;-75
2022/12/28 11:36:38;;;;;;;0.40;0.40;;;8.10;99.90;;;;;;5071701;28;20510;-75
2022/12/28 11:39:24;;;;;;;0.57;0.57;;;8.00;99.90;;;;;;5060442;28;20519;-75
2022/12/28 11:41:55;;;;;;;0.90;0.70;;;8.10;99.90;;;;;;5069428;28;20429;-75
2022/12/28 11:44:42;;;;;;;0.30;0.30;;;8.10;99.90;;;;;;5060185;28;20479;-75
2022/12/28 11:47:14;;;;;;;0.52;0.52;;;8.10;99.90;;;;;;5072521;28;20424;-75
2022/12/28 11:49:46;;;;;;;0.45;0.45;;;8.10;99.90;;;;;;5060805;28;20487;-75
2022/12/28 11:52:13;;;;;;;0.30;0.30;;;8.10;99.90;;;;;;5035388;28;20459;-75
2022/12/28 11:54:54;;;;;;;0.35;0.35;;;8.10;99.90;;;;;;5058213;28;20527;-75
2022/12/28 11:57:33;;;;;;;3.20;0.50;;;8.30;99.90;;;;;;5052388;28;20468;-75
2022/12/28 12:00:18;;;;;;;0.30;0.30;;;8.40;99.90;;;;;;5051759;28;20434;-75
2022/12/28 12:02:55;;;;;;;0.30;0.30;;;8.70;99.90;;;;;;5051531;28;20478;-75
2022/12/28 12:05:37;;;;;;;0.77;0.77;;;8.80;99.90;;;;;;5051607;28;20425;-75
2022/12/28 12:08:16;;;;;;;0.20;0.20;;;8.90;99.90;;;;;;5057569;28;20935;-75
2022/12/28 12:10:44;;;;;;;0.50;0.50;;;9.00;99.90;;;;;;5059957;28;20426;-75
2022/12/28 12:13:29;;;;;;;0.40;0.40;;;8.90;99.90;;;;;;5063178;28;20438;-76
2022/12/28 12:16:04;;;;;;;0.50;0.40;;;9.10;99.90;;;;;;5061129;28;20431;-76
2022/12/28 12:18:55;;;;;;;0.20;0.20;;;9.00;99.90;;;;;;5057013;28;20429;-75
2022/12/28 12:21:40;;;;;;;0.80;0.47;;;8.90;99.90;;;;;;5059372;28;20433;-75
2022/12/28 12:24:31;;;;;;;1.00;0.40;;;8.80;99.90;;;;;;5053598;28;20516;-77
2022/12/28 12:27:35;;;;;;;0.55;0.55;;;8.80;99.90;;;;;;5051807;28;20897;-76
2022/12/28 12:30:06;;;;;;;0.28;0.28;;;8.80;99.90;;;;;;5063276;28;20428;-75
2022/12/28 12:32:50;;;;;;;0.52;0.40;;;8.80;99.90;;;;;;5051474;28;20940;-75
2022/12/28 12:35:20;;;;;;;0.60;0.60;;;8.70;99.90;;;;;;5045655;28;20433;-75
2022/12/28 12:38:05;;;;;;;1.50;0.45;;;8.60;99.90;;;;;;5070470;28;20431;-75
2022/12/28 12:40:43;;;;;;;1.60;0.30;;;8.40;99.90;;;;;;5056936;28;21971;-75
2022/12/28 12:43:41;;;;;;;0.45;0.45;;;8.30;99.90;;;;;;5059245;28;20514;-75
2022/12/28 12:46:07;;;;;;;0.38;0.38;;;8.20;99.90;;;;;;5047569;28;20444;-75
2022/12/28 12:49:11;;;;;;;0.32;0.32;;;8.10;99.90;;;;;;5058665;28;20429;-75
2022/12/28 12:51:56;;;;;;;0.88;0.43;;;8.10;99.90;;;;;;5050468;28;20485;-75
2022/12/28 12:54:41;;;;;;;0.35;0.35;;;8.10;99.90;;;;;;5059066;28;20435;-75
2022/12/28 12:57:21;;;;;;;0.90;0.50;;;8.00;99.90;;;;;;5054594;28;20928;-77
2022/12/28 13:00:02;;;;;;;0.20;0.20;;;8.10;99.90;;;;;;5061225;28;20486;-76
2022/12/28 13:02:40;;;;;;;0.40;0.40;;;8.10;99.90;;;;;;5060117;28;20438;-75
2022/12/28 13:05:16;;;;;;;0.40;0.40;;;8.20;99.90;;;;;;5053757;28;20431;-75
2022/12/28 13:07:43;;;;;;;0.20;0.20;;;8.20;99.90;;;;;;5058206;28;21099;-75
2022/12/28 13:10:26;;;;;;;0.20;0.20;;;8.20;99.90;;;;;;5045586;28;20428;-75
2022/12/28 13:13:00;;;;;;;0.43;0.43;;;8.20;99.90;;;;;;5036303;28;20432;-75
2022/12/28 13:15:27;;;;;;;0.40;0.40;;;8.30;99.90;;;;;;5060759;28;20528;-75
2022/12/28 13:18:04;;;;;;;0.40;0.40;;;8.30;99.90;;;;;;5046993;28;20785;-75
2022/12/28 13:20:56;;;;;;;0.40;0.40;;;8.30;99.90;;;;;;5048232;28;20408;-76
2022/12/28 13:23:25;;;;;;;0.30;0.30;;;8.40;99.90;;;;;;5058173;28;20764;-75
2022/12/28 13:26:01;;;;;;;0.30;0.30;;;8.40;99.90;;;;;;5064829;28;21790;-76
2022/12/28 13:28:35;;;;;;;1.00;0.30;;;8.40;99.90;;;;;;5047294;28;20437;-75
2022/12/28 13:31:15;;;;;;;0.20;0.20;;;8.50;99.90;;;;;;5056805;28;20433;-75
2022/12/28 13:34:00;;;;;;;0.20;0.20;;;8.50;99.90;;;;;;5056069;28;20421;-75
2022/12/28 13:36:27;;;;;;;0.60;0.40;;;8.50;99.90;;;;;;5062026;28;20441;-75
2022/12/28 13:39:14;;;;;;;0.30;0.30;;;8.40;99.90;;;;;;5048922;28;20523;-75
2022/12/28 13:41:57;;;;;;;0.40;0.40;;;8.30;99.90;;;;;;5060030;28;20453;-76
2022/12/28 13:44:50;;;;;;;0.20;0.20;;;8.20;99.90;;;;;;5062823;28;20431;-76
2022/12/28 13:47:30;;;;;;;0.32;0.32;;;8.20;99.90;;;;;;5059318;28;20431;-75
2022/12/28 13:50:05;;;;;;;1.10;0.40;;;8.10;99.90;;;;;;5054821;28;20458;-75
2022/12/28 13:52:49;;;;;;;0.40;0.40;;;8.10;99.90;;;;;;5065023;28;20436;-75
2022/12/28 13:55:27;;;;;;;0.50;0.50;;;8.00;99.90;;;;;;5054720;28;20944;-76
2022/12/28 13:57:59;;;;;;;0.60;0.60;;;8.00;99.90;;;;;;5056095;28;20960;-75